Smyrna, TN (MQY)

CessnaPCRedbird FMX


Wings of Eagles Aviation started in Smyrna (MQY) in 1998 as a small flight school. The Smyrna Airport is the third largest airport in the state of Tennessee and the busiest general aviation airport. With its longest runway being just over 8,000 feet and having its own air traffic control tower, this is the best possible training environment for all pilots. Once you learn how to fly here, you will be confident no matter where your aviation adventures take you.

Address:
278 Doug Warpoole Rd. Suite 104
Smyrna, TN 37167

Phone: (615) 355-0033

Business Hours:
Monday-Sunday 7a-10p

Wings MQY

NOAA Weather

Smyrna, TN

Last Updated on Jan 18 2017, 4:56 pm CST

Current Conditions: Fair

NOAA Icon

Temp: 47°F

Wind: North at 0mph

Humidity: 83%

Dewpoint: 42.1°F

Your 5-Day Forecast at a Glance

Available data for KMQY from the past 2 hours
SMYRNA, TN
Metar
KMQY 182356Z 00000KT 10SM CLR 08/06 A3016 RMK AO2 SLP223 T00780056 10094 20078 56005

23:56 UTC

Wind: 0° 0kt

Visibility: 10 SM

Sky:

Temp: 8 deg C / 46.4 deg F

Dewpoint: 6 deg C / 42.8 deg F

Pressure: 30.16 inHg